sensor_id;sensor_type;location;lat;lon;timestamp;pressure;altitude;pressure_sealevel;temperature;humidity
46782;BME280;32541;46.298;11.506;2022-07-29T00:00:42;89765.09;;;17.11;89.00
46782;BME280;32541;46.298;11.506;2022-07-29T00:03:11;89776.31;;;16.99;90.55
46782;BME280;32541;46.298;11.506;2022-07-29T00:05:39;89782.81;;;17.04;91.95
46782;BME280;32541;46.298;11.506;2022-07-29T00:08:05;89795.66;;;16.97;91.15
46782;BME280;32541;46.298;11.506;2022-07-29T00:10:30;89794.84;;;17.08;91.01
46782;BME280;32541;46.298;11.506;2022-07-29T00:12:55;89799.47;;;17.04;88.57
46782;BME280;32541;46.298;11.506;2022-07-29T00:15:21;89796.78;;;17.06;88.25
46782;BME280;32541;46.298;11.506;2022-07-29T00:17:46;89803.47;;;17.01;89.59
46782;BME280;32541;46.298;11.506;2022-07-29T00:20:12;89801.72;;;16.94;90.42
46782;BME280;32541;46.298;11.506;2022-07-29T00:22:38;89810.88;;;16.96;90.68
46782;BME280;32541;46.298;11.506;2022-07-29T00:25:04;89809.03;;;17.01;90.43
46782;BME280;32541;46.298;11.506;2022-07-29T00:27:30;89804.22;;;17.01;90.64
46782;BME280;32541;46.298;11.506;2022-07-29T00:29:55;89806.84;;;16.86;91.69
46782;BME280;32541;46.298;11.506;2022-07-29T00:32:20;89803.00;;;16.79;91.85
46782;BME280;32541;46.298;11.506;2022-07-29T00:34:46;89812.34;;;16.72;91.79
46782;BME280;32541;46.298;11.506;2022-07-29T00:37:30;89812.53;;;16.62;91.19
46782;BME280;32541;46.298;11.506;2022-07-29T00:39:55;89809.81;;;16.51;91.69
46782;BME280;32541;46.298;11.506;2022-07-29T00:42:20;89810.31;;;16.47;93.35
46782;BME280;32541;46.298;11.506;2022-07-29T00:44:46;89810.69;;;16.42;89.43
46782;BME280;32541;46.298;11.506;2022-07-29T00:47:12;89807.13;;;16.28;87.89
46782;BME280;32541;46.298;11.506;2022-07-29T00:49:39;89802.28;;;16.28;85.23
46782;BME280;32541;46.298;11.506;2022-07-29T00:52:06;89794.84;;;16.19;85.35
46782;BME280;32541;46.298;11.506;2022-07-29T00:54:35;89789.13;;;16.03;86.47
46782;BME280;32541;46.298;11.506;2022-07-29T00:57:02;89789.50;;;15.98;87.13
46782;BME280;32541;46.298;11.506;2022-07-29T00:59:28;89787.31;;;16.08;87.12
46782;BME280;32541;46.298;11.506;2022-07-29T01:01:54;89787.22;;;16.06;86.85
46782;BME280;32541;46.298;11.506;2022-07-29T01:04:21;89778.06;;;15.92;85.52
46782;BME280;32541;46.298;11.506;2022-07-29T01:06:50;89781.72;;;15.94;86.34
46782;BME280;32541;46.298;11.506;2022-07-29T01:09:17;89784.59;;;15.96;87.09
46782;BME280;32541;46.298;11.506;2022-07-29T01:11:44;89792.06;;;15.94;85.95
46782;BME280;32541;46.298;11.506;2022-07-29T01:14:10;89780.50;;;15.86;84.93
46782;BME280;32541;46.298;11.506;2022-07-29T01:16:51;89780.50;;;15.86;83.91
46782;BME280;32541;46.298;11.506;2022-07-29T01:21:55;89791.44;;;15.95;85.57
46782;BME280;32541;46.298;11.506;2022-07-29T01:24:33;89790.28;;;15.87;84.56
46782;BME280;32541;46.298;11.506;2022-07-29T01:29:45;89787.59;;;15.89;83.54
46782;BME280;32541;46.298;11.506;2022-07-29T01:32:18;89794.94;;;15.96;84.35
46782;BME280;32541;46.298;11.506;2022-07-29T01:35:05;89786.63;;;15.96;86.34
46782;BME280;32541;46.298;11.506;2022-07-29T01:37:39;89783.63;;;15.92;87.32
46782;BME280;32541;46.298;11.506;2022-07-29T01:40:14;89767.16;;;15.82;89.69
46782;BME280;32541;46.298;11.506;2022-07-29T01:42:45;89778.69;;;15.90;89.84
46782;BME280;32541;46.298;11.506;2022-07-29T01:48:04;89759.66;;;15.85;89.55
46782;BME280;32541;46.298;11.506;2022-07-29T01:50:38;89756.41;;;15.88;86.68
46782;BME280;32541;46.298;11.506;2022-07-29T01:53:07;89770.56;;;15.69;87.14
46782;BME280;32541;46.298;11.506;2022-07-29T01:55:39;89775.03;;;15.63;88.91
46782;BME280;32541;46.298;11.506;2022-07-29T01:58:07;89768.09;;;15.50;89.26
46782;BME280;32541;46.298;11.506;2022-07-29T02:00:34;89766.84;;;15.53;89.19
46782;BME280;32541;46.298;11.506;2022-07-29T02:03:06;89771.56;;;15.50;88.62
46782;BME280;32541;46.298;11.506;2022-07-29T02:05:34;89766.66;;;15.37;89.29
46782;BME280;32541;46.298;11.506;2022-07-29T02:08:02;89762.22;;;15.09;90.85
46782;BME280;32541;46.298;11.506;2022-07-29T02:10:31;89757.78;;;15.04;91.01
46782;BME280;32541;46.298;11.506;2022-07-29T02:12:58;89752.69;;;15.12;90.17
46782;BME280;32541;46.298;11.506;2022-07-29T02:15:27;89753.28;;;15.22;89.61
46782;BME280;32541;46.298;11.506;2022-07-29T02:18:03;89758.13;;;14.98;90.16
46782;BME280;32541;46.298;11.506;2022-07-29T02:20:30;89758.16;;;14.75;91.43
46782;BME280;32541;46.298;11.506;2022-07-29T02:22:57;89752.47;;;14.85;91.46
46782;BME280;32541;46.298;11.506;2022-07-29T02:25:24;89754.41;;;14.82;91.37
46782;BME280;32541;46.298;11.506;2022-07-29T02:27:50;89762.13;;;14.95;90.54
46782;BME280;32541;46.298;11.506;2022-07-29T02:30:18;89759.22;;;15.05;91.07
46782;BME280;32541;46.298;11.506;2022-07-29T02:32:46;89764.88;;;15.07;90.44
46782;BME280;32541;46.298;11.506;2022-07-29T02:35:14;89758.97;;;15.01;89.28
46782;BME280;32541;46.298;11.506;2022-07-29T02:37:41;89755.34;;;15.10;89.19
46782;BME280;32541;46.298;11.506;2022-07-29T02:40:10;89756.66;;;15.09;88.87
46782;BME280;32541;46.298;11.506;2022-07-29T02:42:37;89759.09;;;15.03;89.26
46782;BME280;32541;46.298;11.506;2022-07-29T02:45:05;89759.34;;;14.72;90.46
46782;BME280;32541;46.298;11.506;2022-07-29T02:47:39;89753.56;;;14.68;91.03
46782;BME280;32541;46.298;11.506;2022-07-29T02:50:33;89748.59;;;14.55;91.49
46782;BME280;32541;46.298;11.506;2022-07-29T02:53:07;89751.25;;;14.65;91.15
46782;BME280;32541;46.298;11.506;2022-07-29T02:56:01;89752.81;;;14.44;92.35
46782;BME280;32541;46.298;11.506;2022-07-29T02:58:30;89754.69;;;14.30;92.60
46782;BME280;32541;46.298;11.506;2022-07-29T03:00:58;89760.94;;;14.19;92.29
46782;BME280;32541;46.298;11.506;2022-07-29T03:03:29;89763.69;;;14.19;92.51
46782;BME280;32541;46.298;11.506;2022-07-29T03:05:57;89760.06;;;14.17;92.36
46782;BME280;32541;46.298;11.506;2022-07-29T03:08:23;89760.69;;;14.27;91.96
46782;BME280;32541;46.298;11.506;2022-07-29T03:10:51;89759.97;;;14.26;92.14
46782;BME280;32541;46.298;11.506;2022-07-29T03:13:17;89757.13;;;14.36;91.52
46782;BME280;32541;46.298;11.506;2022-07-29T03:15:44;89757.41;;;14.40;91.24
46782;BME280;32541;46.298;11.506;2022-07-29T03:18:11;89760.50;;;14.34;91.21
46782;BME280;32541;46.298;11.506;2022-07-29T03:20:37;89760.38;;;14.32;90.42
46782;BME280;32541;46.298;11.506;2022-07-29T03:23:03;89765.84;;;14.21;91.06
46782;BME280;32541;46.298;11.506;2022-07-29T03:25:29;89762.59;;;14.13;92.34
46782;BME280;32541;46.298;11.506;2022-07-29T03:27:55;89763.91;;;14.12;92.54
46782;BME280;32541;46.298;11.506;2022-07-29T03:30:21;89764.63;;;14.12;91.59
46782;BME280;32541;46.298;11.506;2022-07-29T03:32:48;89764.03;;;14.14;91.30
46782;BME280;32541;46.298;11.506;2022-07-29T03:35:14;89757.31;;;14.17;91.17
46782;BME280;32541;46.298;11.506;2022-07-29T03:37:42;89765.13;;;14.20;91.32
46782;BME280;32541;46.298;11.506;2022-07-29T03:40:08;89766.69;;;14.23;91.19
46782;BME280;32541;46.298;11.506;2022-07-29T03:42:38;89759.09;;;14.12;91.23
46782;BME280;32541;46.298;11.506;2022-07-29T03:45:10;89762.47;;;14.22;90.57
46782;BME280;32541;46.298;11.506;2022-07-29T03:47:42;89756.91;;;14.11;91.99
46782;BME280;32541;46.298;11.506;2022-07-29T03:50:10;89761.00;;;13.98;92.09
46782;BME280;32541;46.298;11.506;2022-07-29T03:52:37;89767.00;;;13.95;92.09
46782;BME280;32541;46.298;11.506;2022-07-29T03:55:03;89774.91;;;13.88;92.38
46782;BME280;32541;46.298;11.506;2022-07-29T03:57:30;89767.06;;;13.85;92.94
46782;BME280;32541;46.298;11.506;2022-07-29T03:59:57;89761.00;;;13.98;92.45
46782;BME280;32541;46.298;11.506;2022-07-29T04:02:24;89765.78;;;13.98;92.37
46782;BME280;32541;46.298;11.506;2022-07-29T04:04:51;89764.94;;;13.95;92.15
46782;BME280;32541;46.298;11.506;2022-07-29T04:07:17;89767.28;;;13.77;92.67
46782;BME280;32541;46.298;11.506;2022-07-29T04:09:42;89765.91;;;13.67;93.41
46782;BME280;32541;46.298;11.506;2022-07-29T04:12:08;89770.84;;;13.68;93.63
46782;BME280;32541;46.298;11.506;2022-07-29T04:14:34;89768.13;;;13.80;93.35
46782;BME280;32541;46.298;11.506;2022-07-29T04:17:01;89771.53;;;13.90;92.77
46782;BME280;32541;46.298;11.506;2022-07-29T04:19:27;89766.31;;;13.52;94.01
46782;BME280;32541;46.298;11.506;2022-07-29T04:21:52;89768.84;;;13.48;94.58
46782;BME280;32541;46.298;11.506;2022-07-29T04:24:18;89774.09;;;13.44;94.91
46782;BME280;32541;46.298;11.506;2022-07-29T04:26:44;89768.34;;;13.51;94.96
46782;BME280;32541;46.298;11.506;2022-07-29T04:29:10;89761.34;;;13.60;94.92
46782;BME280;32541;46.298;11.506;2022-07-29T04:31:37;89758.69;;;13.62;94.70
46782;BME280;32541;46.298;11.506;2022-07-29T04:34:02;89758.34;;;13.67;94.32
46782;BME280;32541;46.298;11.506;2022-07-29T04:36:27;89767.75;;;13.74;94.22
46782;BME280;32541;46.298;11.506;2022-07-29T04:38:53;89762.69;;;13.70;94.89
46782;BME280;32541;46.298;11.506;2022-07-29T04:41:18;89772.50;;;13.62;94.44
46782;BME280;32541;46.298;11.506;2022-07-29T04:43:43;89761.84;;;13.68;94.46
46782;BME280;32541;46.298;11.506;2022-07-29T04:46:09;89768.28;;;13.61;93.66
46782;BME280;32541;46.298;11.506;2022-07-29T04:48:34;89758.81;;;13.64;93.27
46782;BME280;32541;46.298;11.506;2022-07-29T04:51:00;89762.41;;;13.66;93.64
46782;BME280;32541;46.298;11.506;2022-07-29T04:53:25;89749.94;;;13.65;93.41
46782;BME280;32541;46.298;11.506;2022-07-29T04:55:50;89753.78;;;13.72;93.43
46782;BME280;32541;46.298;11.506;2022-07-29T04:58:16;89756.03;;;13.64;93.67
46782;BME280;32541;46.298;11.506;2022-07-29T05:00:42;89761.84;;;13.68;94.21
46782;BME280;32541;46.298;11.506;2022-07-29T05:03:07;89763.53;;;13.73;94.17
46782;BME280;32541;46.298;11.506;2022-07-29T05:05:32;89760.09;;;13.84;93.55
46782;BME280;32541;46.298;11.506;2022-07-29T05:07:58;89751.91;;;13.74;92.99
46782;BME280;32541;46.298;11.506;2022-07-29T05:10:24;89766.72;;;13.58;93.25
46782;BME280;32541;46.298;11.506;2022-07-29T05:12:49;89774.50;;;13.50;94.25
46782;BME280;32541;46.298;11.506;2022-07-29T05:15:14;89775.16;;;13.60;94.25
46782;BME280;32541;46.298;11.506;2022-07-29T05:17:40;89776.84;;;13.65;93.80
46782;BME280;32541;46.298;11.506;2022-07-29T05:20:06;89784.06;;;13.70;93.53
46782;BME280;32541;46.298;11.506;2022-07-29T05:22:32;89786.09;;;13.69;93.43
46782;BME280;32541;46.298;11.506;2022-07-29T05:24:57;89786.94;;;13.72;93.38
46782;BME280;32541;46.298;11.506;2022-07-29T05:27:23;89788.69;;;13.77;92.90
46782;BME280;32541;46.298;11.506;2022-07-29T05:29:48;89786.31;;;13.83;91.75
46782;BME280;32541;46.298;11.506;2022-07-29T05:32:14;89791.63;;;13.69;92.86
46782;BME280;32541;46.298;11.506;2022-07-29T05:34:40;89792.63;;;13.74;92.93
46782;BME280;32541;46.298;11.506;2022-07-29T05:37:06;89797.88;;;13.70;93.54
46782;BME280;32541;46.298;11.506;2022-07-29T05:39:31;89796.31;;;13.67;94.09
46782;BME280;32541;46.298;11.506;2022-07-29T05:41:57;89791.25;;;13.63;93.89
46782;BME280;32541;46.298;11.506;2022-07-29T05:44:22;89794.00;;;13.63;93.96
46782;BME280;32541;46.298;11.506;2022-07-29T05:46:47;89789.22;;;13.64;93.13
46782;BME280;32541;46.298;11.506;2022-07-29T05:49:13;89789.59;;;13.49;93.87
46782;BME280;32541;46.298;11.506;2022-07-29T05:51:38;89794.09;;;13.54;94.10
46782;BME280;32541;46.298;11.506;2022-07-29T05:54:04;89788.56;;;13.54;94.54
46782;BME280;32541;46.298;11.506;2022-07-29T05:56:29;89792.63;;;13.53;95.23
46782;BME280;32541;46.298;11.506;2022-07-29T05:58:54;89784.63;;;13.57;94.83
46782;BME280;32541;46.298;11.506;2022-07-29T06:01:20;89785.59;;;13.61;95.13
46782;BME280;32541;46.298;11.506;2022-07-29T06:03:45;89790.34;;;13.49;95.89
46782;BME280;32541;46.298;11.506;2022-07-29T06:06:11;89781.94;;;13.47;96.52
46782;BME280;32541;46.298;11.506;2022-07-29T06:08:37;89782.25;;;13.42;97.05
46782;BME280;32541;46.298;11.506;2022-07-29T06:11:03;89781.19;;;13.68;95.86
46782;BME280;32541;46.298;11.506;2022-07-29T06:13:30;89781.56;;;13.74;95.58
46782;BME280;32541;46.298;11.506;2022-07-29T06:15:56;89775.81;;;13.81;95.10
46782;BME280;32541;46.298;11.506;2022-07-29T06:18:22;89777.00;;;13.78;95.10
46782;BME280;32541;46.298;11.506;2022-07-29T06:20:50;89776.16;;;13.76;94.89
46782;BME280;32541;46.298;11.506;2022-07-29T06:23:15;89769.66;;;13.71;95.66
46782;BME280;32541;46.298;11.506;2022-07-29T06:25:41;89770.28;;;13.81;95.33
46782;BME280;32541;46.298;11.506;2022-07-29T06:28:06;89774.50;;;13.82;95.43
46782;BME280;32541;46.298;11.506;2022-07-29T06:30:32;89768.75;;;13.90;95.32
46782;BME280;32541;46.298;11.506;2022-07-29T06:32:57;89762.19;;;13.95;96.18
46782;BME280;32541;46.298;11.506;2022-07-29T06:35:22;89778.47;;;14.12;96.65
46782;BME280;32541;46.298;11.506;2022-07-29T06:37:48;89771.69;;;14.36;96.69
46782;BME280;32541;46.298;11.506;2022-07-29T06:40:13;89771.09;;;14.50;96.66
46782;BME280;32541;46.298;11.506;2022-07-29T06:42:57;89777.25;;;14.60;96.20
46782;BME280;32541;46.298;11.506;2022-07-29T06:45:22;89778.72;;;14.84;94.42
46782;BME280;32541;46.298;11.506;2022-07-29T06:47:49;89770.06;;;14.89;94.21
46782;BME280;32541;46.298;11.506;2022-07-29T06:50:15;89776.53;;;15.06;94.02
46782;BME280;32541;46.298;11.506;2022-07-29T06:52:43;89779.81;;;15.14;93.88
46782;BME280;32541;46.298;11.506;2022-07-29T06:55:09;89780.50;;;15.37;93.96
46782;BME280;32541;46.298;11.506;2022-07-29T06:57:34;89772.06;;;15.59;92.89
46782;BME280;32541;46.298;11.506;2022-07-29T07:00:00;89780.50;;;15.86;90.71
46782;BME280;32541;46.298;11.506;2022-07-29T07:02:25;89775.16;;;16.01;90.93
46782;BME280;32541;46.298;11.506;2022-07-29T07:04:51;89763.75;;;16.21;90.31
46782;BME280;32541;46.298;11.506;2022-07-29T07:07:16;89764.00;;;16.38;89.65
46782;BME280;32541;46.298;11.506;2022-07-29T07:09:42;89763.31;;;16.51;88.42
46782;BME280;32541;46.298;11.506;2022-07-29T07:12:07;89766.59;;;16.73;86.65
46782;BME280;32541;46.298;11.506;2022-07-29T07:14:33;89769.09;;;16.94;85.36
46782;BME280;32541;46.298;11.506;2022-07-29T07:16:58;89765.22;;;17.27;84.83
46782;BME280;32541;46.298;11.506;2022-07-29T07:19:25;89765.31;;;17.42;83.50
46782;BME280;32541;46.298;11.506;2022-07-29T07:21:52;89763.56;;;17.49;81.23
46782;BME280;32541;46.298;11.506;2022-07-29T07:24:18;89765.31;;;17.69;80.20
46782;BME280;32541;46.298;11.506;2022-07-29T07:26:43;89759.72;;;17.83;79.45
46782;BME280;32541;46.298;11.506;2022-07-29T07:29:08;89759.03;;;18.12;79.18
46782;BME280;32541;46.298;11.506;2022-07-29T07:31:34;89760.56;;;18.44;74.64
46782;BME280;32541;46.298;11.506;2022-07-29T07:33:59;89753.44;;;18.55;74.84
46782;BME280;32541;46.298;11.506;2022-07-29T07:36:25;89754.91;;;18.71;74.89
46782;BME280;32541;46.298;11.506;2022-07-29T07:38:50;89750.97;;;18.76;74.81
46782;BME280;32541;46.298;11.506;2022-07-29T07:41:15;89746.75;;;18.91;74.82
46782;BME280;32541;46.298;11.506;2022-07-29T07:43:41;89752.84;;;19.19;73.41
46782;BME280;32541;46.298;11.506;2022-07-29T07:46:06;89747.72;;;19.29;72.39
46782;BME280;32541;46.298;11.506;2022-07-29T07:48:32;89749.81;;;19.44;72.59
46782;BME280;32541;46.298;11.506;2022-07-29T07:51:00;89746.81;;;19.56;71.54
46782;BME280;32541;46.298;11.506;2022-07-29T07:53:25;89742.16;;;19.78;72.40
46782;BME280;32541;46.298;11.506;2022-07-29T07:55:51;89744.66;;;19.87;70.99
46782;BME280;32541;46.298;11.506;2022-07-29T07:58:16;89746.59;;;19.67;68.82
46782;BME280;32541;46.298;11.506;2022-07-29T08:00:41;89745.66;;;19.45;70.11
46782;BME280;32541;46.298;11.506;2022-07-29T08:03:08;89752.00;;;19.63;69.10
46782;BME280;32541;46.298;11.506;2022-07-29T08:05:33;89751.22;;;19.45;71.37
46782;BME280;32541;46.298;11.506;2022-07-29T08:07:59;89747.22;;;19.66;71.89
46782;BME280;32541;46.298;11.506;2022-07-29T08:10:24;89746.06;;;20.04;70.05
46782;BME280;32541;46.298;11.506;2022-07-29T08:13:09;89755.22;;;20.40;66.82
46782;BME280;32541;46.298;11.506;2022-07-29T08:15:38;89749.03;;;20.61;67.63
46782;BME280;32541;46.298;11.506;2022-07-29T08:18:04;89741.47;;;20.81;68.42
46782;BME280;32541;46.298;11.506;2022-07-29T08:20:30;89742.34;;;21.05;68.06
46782;BME280;32541;46.298;11.506;2022-07-29T08:22:58;89741.00;;;21.06;69.13
46782;BME280;32541;46.298;11.506;2022-07-29T08:25:24;89747.28;;;20.87;65.61
46782;BME280;32541;46.298;11.506;2022-07-29T08:27:49;89740.41;;;20.73;66.91
46782;BME280;32541;46.298;11.506;2022-07-29T08:30:14;89731.34;;;20.72;66.78
46782;BME280;32541;46.298;11.506;2022-07-29T08:32:40;89732.19;;;20.77;67.25
46782;BME280;32541;46.298;11.506;2022-07-29T08:35:05;89725.00;;;20.89;65.95
46782;BME280;32541;46.298;11.506;2022-07-29T08:37:31;89726.19;;;20.84;66.64
46782;BME280;32541;46.298;11.506;2022-07-29T08:39:56;89729.50;;;20.26;67.44
46782;BME280;32541;46.298;11.506;2022-07-29T08:42:22;89725.31;;;20.09;67.35
46782;BME280;32541;46.298;11.506;2022-07-29T08:44:48;89724.28;;;20.18;67.00
46782;BME280;32541;46.298;11.506;2022-07-29T08:47:14;89709.22;;;20.43;69.63
46782;BME280;32541;46.298;11.506;2022-07-29T08:49:39;89704.00;;;20.71;69.84
46782;BME280;32541;46.298;11.506;2022-07-29T08:52:05;89708.56;;;20.99;67.51
46782;BME280;32541;46.298;11.506;2022-07-29T08:54:30;89715.31;;;21.49;66.90
46782;BME280;32541;46.298;11.506;2022-07-29T08:56:57;89706.09;;;21.86;64.96
46782;BME280;32541;46.298;11.506;2022-07-29T08:59:25;89705.81;;;21.98;62.93
46782;BME280;32541;46.298;11.506;2022-07-29T09:01:53;89705.38;;;22.05;62.70
46782;BME280;32541;46.298;11.506;2022-07-29T09:04:19;89702.50;;;21.84;62.32
46782;BME280;32541;46.298;11.506;2022-07-29T09:06:47;89701.69;;;22.01;64.21
46782;BME280;32541;46.298;11.506;2022-07-29T09:09:13;89689.66;;;21.96;63.12
46782;BME280;32541;46.298;11.506;2022-07-29T09:11:40;89692.84;;;21.47;63.96
46782;BME280;32541;46.298;11.506;2022-07-29T09:14:06;89694.78;;;21.23;63.63
46782;BME280;32541;46.298;11.506;2022-07-29T09:21:46;89686.00;;;21.92;61.84
46782;BME280;32541;46.298;11.506;2022-07-29T09:27:00;89675.78;;;21.39;64.06
46782;BME280;32541;46.298;11.506;2022-07-29T09:29:25;89672.59;;;21.88;63.38
46782;BME280;32541;46.298;11.506;2022-07-29T09:31:53;89671.16;;;22.31;63.16
46782;BME280;32541;46.298;11.506;2022-07-29T09:34:28;89675.84;;;22.91;62.82
46782;BME280;32541;46.298;11.506;2022-07-29T09:36:56;89673.31;;;22.32;60.23
46782;BME280;32541;46.298;11.506;2022-07-29T09:42:01;89677.47;;;21.88;58.58
46782;BME280;32541;46.298;11.506;2022-07-29T09:44:43;89671.25;;;22.11;58.38
46782;BME280;32541;46.298;11.506;2022-07-29T09:47:09;89666.66;;;22.65;56.09
46782;BME280;32541;46.298;11.506;2022-07-29T09:49:36;89654.78;;;22.90;56.02
46782;BME280;32541;46.298;11.506;2022-07-29T09:52:14;89658.59;;;23.24;53.66
46782;BME280;32541;46.298;11.506;2022-07-29T09:54:40;89663.38;;;22.51;54.72
46782;BME280;32541;46.298;11.506;2022-07-29T09:57:21;89663.41;;;22.75;56.02
46782;BME280;32541;46.298;11.506;2022-07-29T10:00:06;89652.88;;;22.97;54.16
46782;BME280;32541;46.298;11.506;2022-07-29T10:02:35;89653.19;;;23.07;52.58
46782;BME280;32541;46.298;11.506;2022-07-29T10:05:04;89659.22;;;23.47;53.55
46782;BME280;32541;46.298;11.506;2022-07-29T10:08:02;89653.78;;;23.29;51.93
46782;BME280;32541;46.298;11.506;2022-07-29T10:10:30;89663.50;;;23.75;50.97
46782;BME280;32541;46.298;11.506;2022-07-29T10:12:58;89656.97;;;23.41;50.27
46782;BME280;32541;46.298;11.506;2022-07-29T10:15:27;89653.78;;;23.29;51.80
46782;BME280;32541;46.298;11.506;2022-07-29T10:17:54;89653.59;;;23.72;50.33
46782;BME280;32541;46.298;11.506;2022-07-29T10:20:21;89659.50;;;23.57;51.29
46782;BME280;32541;46.298;11.506;2022-07-29T10:22:48;89648.00;;;23.23;52.20
46782;BME280;32541;46.298;11.506;2022-07-29T10:25:15;89646.78;;;23.54;54.07
46782;BME280;32541;46.298;11.506;2022-07-29T10:27:41;89642.44;;;24.02;53.76
46782;BME280;32541;46.298;11.506;2022-07-29T10:30:07;89645.47;;;24.40;54.41
46782;BME280;32541;46.298;11.506;2022-07-29T10:38:10;89645.84;;;23.99;52.03
46782;BME280;32541;46.298;11.506;2022-07-29T10:41:06;89629.66;;;23.97;55.11
46782;BME280;32541;46.298;11.506;2022-07-29T10:43:51;89625.94;;;24.16;53.57
46782;BME280;32541;46.298;11.506;2022-07-29T10:46:19;89622.56;;;24.52;54.19
46782;BME280;32541;46.298;11.506;2022-07-29T10:57:14;89612.94;;;24.03;53.74
46782;BME280;32541;46.298;11.506;2022-07-29T10:59:40;89606.22;;;24.14;51.71
46782;BME280;32541;46.298;11.506;2022-07-29T11:02:46;89604.31;;;24.53;52.88
46782;BME280;32541;46.298;11.506;2022-07-29T11:05:17;89592.53;;;24.92;53.77
46782;BME280;32541;46.298;11.506;2022-07-29T11:10:37;89593.16;;;25.22;49.98
46782;BME280;32541;46.298;11.506;2022-07-29T11:13:03;89582.84;;;24.99;48.89
46782;BME280;32541;46.298;11.506;2022-07-29T11:15:28;89589.63;;;24.56;49.16
46782;BME280;32541;46.298;11.506;2022-07-29T11:25:43;89587.22;;;24.13;48.96
46782;BME280;32541;46.298;11.506;2022-07-29T11:28:14;89583.19;;;24.52;48.50
46782;BME280;32541;46.298;11.506;2022-07-29T11:30:48;89580.16;;;24.73;47.86
46782;BME280;32541;46.298;11.506;2022-07-29T11:33:47;89573.47;;;24.88;47.09
46782;BME280;32541;46.298;11.506;2022-07-29T11:36:14;89575.19;;;25.04;47.61
46782;BME280;32541;46.298;11.506;2022-07-29T11:38:40;89579.34;;;25.36;47.32
46782;BME280;32541;46.298;11.506;2022-07-29T11:46:41;89569.13;;;25.93;45.84
46782;BME280;32541;46.298;11.506;2022-07-29T11:49:03;89565.13;;;25.28;45.83
46782;BME280;32541;46.298;11.506;2022-07-29T11:51:30;89564.44;;;25.66;43.98
46782;BME280;32541;46.298;11.506;2022-07-29T11:53:57;89567.28;;;25.68;45.17
46782;BME280;32541;46.298;11.506;2022-07-29T11:56:23;89566.56;;;26.07;46.42
46782;BME280;32541;46.298;11.506;2022-07-29T11:59:02;89558.75;;;26.47;46.65
46782;BME280;32541;46.298;11.506;2022-07-29T12:01:28;89559.09;;;26.72;44.38
46782;BME280;32541;46.298;11.506;2022-07-29T12:04:03;89561.34;;;26.79;45.58
46782;BME280;32541;46.298;11.506;2022-07-29T12:06:29;89563.13;;;26.57;46.52
46782;BME280;32541;46.298;11.506;2022-07-29T12:08:55;89560.50;;;26.73;45.64
46782;BME280;32541;46.298;11.506;2022-07-29T12:11:20;89560.88;;;26.97;46.85
46782;BME280;32541;46.298;11.506;2022-07-29T12:13:46;89560.97;;;26.11;45.32
46782;BME280;32541;46.298;11.506;2022-07-29T12:16:11;89561.63;;;26.08;46.15
46782;BME280;32541;46.298;11.506;2022-07-29T12:18:36;89569.03;;;25.87;45.26
46782;BME280;32541;46.298;11.506;2022-07-29T12:21:03;89553.06;;;26.02;45.39
46782;BME280;32541;46.298;11.506;2022-07-29T12:23:32;89552.06;;;25.83;47.25
46782;BME280;32541;46.298;11.506;2022-07-29T12:25:58;89542.69;;;26.12;47.29
46782;BME280;32541;46.298;11.506;2022-07-29T12:28:25;89555.72;;;25.91;45.26
46782;BME280;32541;46.298;11.506;2022-07-29T12:30:51;89546.16;;;25.69;46.42
46782;BME280;32541;46.298;11.506;2022-07-29T12:33:25;89554.06;;;25.03;46.26
46782;BME280;32541;46.298;11.506;2022-07-29T12:35:56;89559.47;;;25.26;46.67
46782;BME280;32541;46.298;11.506;2022-07-29T12:38:22;89556.19;;;25.04;47.37
46782;BME280;32541;46.298;11.506;2022-07-29T12:40:48;89562.09;;;24.51;48.21
46782;BME280;32541;46.298;11.506;2022-07-29T12:43:18;89558.03;;;24.58;50.57
46782;BME280;32541;46.298;11.506;2022-07-29T12:45:47;89557.25;;;24.87;50.40
46782;BME280;32541;46.298;11.506;2022-07-29T12:48:14;89565.72;;;24.87;50.03
46782;BME280;32541;46.298;11.506;2022-07-29T12:51:11;89569.06;;;25.15;50.24
46782;BME280;32541;46.298;11.506;2022-07-29T12:53:39;89577.13;;;25.31;48.92
46782;BME280;32541;46.298;11.506;2022-07-29T12:56:05;89578.28;;;24.84;49.30
46782;BME280;32541;46.298;11.506;2022-07-29T12:58:34;89579.25;;;24.65;49.72
46782;BME280;32541;46.298;11.506;2022-07-29T13:01:08;89572.06;;;24.88;49.90
46782;BME280;32541;46.298;11.506;2022-07-29T13:03:54;89562.91;;;25.23;48.66
46782;BME280;32541;46.298;11.506;2022-07-29T13:06:40;89557.31;;;25.61;49.01
46782;BME280;32541;46.298;11.506;2022-07-29T13:09:17;89556.28;;;26.24;48.19
46782;BME280;32541;46.298;11.506;2022-07-29T13:11:45;89555.50;;;26.19;46.30
46782;BME280;32541;46.298;11.506;2022-07-29T13:14:34;89556.97;;;25.80;46.80
46782;BME280;32541;46.298;11.506;2022-07-29T13:17:11;89562.94;;;25.61;48.63
46782;BME280;32541;46.298;11.506;2022-07-29T13:20:04;89564.59;;;25.02;48.30
46782;BME280;32541;46.298;11.506;2022-07-29T13:22:30;89570.88;;;24.99;49.84
46782;BME280;32541;46.298;11.506;2022-07-29T13:24:59;89564.69;;;25.06;49.46
46782;BME280;32541;46.298;11.506;2022-07-29T13:27:28;89563.22;;;25.03;49.55
46782;BME280;32541;46.298;11.506;2022-07-29T13:29:55;89564.53;;;24.98;49.48
46782;BME280;32541;46.298;11.506;2022-07-29T13:32:23;89572.25;;;24.66;51.03
46782;BME280;32541;46.298;11.506;2022-07-29T13:34:49;89557.94;;;24.85;51.57
46782;BME280;32541;46.298;11.506;2022-07-29T13:37:15;89561.81;;;25.40;53.79
46782;BME280;32541;46.298;11.506;2022-07-29T13:39:42;89561.28;;;24.78;51.23
46782;BME280;32541;46.298;11.506;2022-07-29T13:42:08;89557.97;;;24.88;51.70
46782;BME280;32541;46.298;11.506;2022-07-29T13:44:34;89560.88;;;24.92;52.62